Time;durP1;ratioP1;P1;durP2;ratioP2;P2;SDS_P1;SDS_P2;PMS_P1;PMS_P2;Temp;Humidity;BMP_temperature;BMP_pressure;BME280_temperature;BME280_humidity;BME280_pressure;Samples;Min_cycle;Max_cycle;Signal;HPM_P1;HPM_P2
2022/03/16 00:00:22;;;;;;;51.15;19.88;;;;;;;6.91;100.00;99170.44;5085082;28;20032;-68
2022/03/16 00:02:49;;;;;;;51.97;19.48;;;;;;;6.94;100.00;99174.81;5085003;28;20244;-68
2022/03/16 00:05:15;;;;;;;48.45;18.42;;;;;;;6.97;100.00;99170.47;5084852;28;20025;-68
2022/03/16 00:07:41;;;;;;;52.30;19.40;;;;;;;6.89;100.00;99177.41;5084864;28;20039;-68
2022/03/16 00:10:08;;;;;;;51.30;19.10;;;;;;;6.93;100.00;99179.16;5084778;28;20220;-68
2022/03/16 00:12:34;;;;;;;53.70;19.73;;;;;;;6.92;100.00;99177.44;5085077;28;20330;-68
2022/03/16 00:15:00;;;;;;;54.38;19.15;;;;;;;6.97;100.00;99172.22;5084697;28;20103;-68
2022/03/16 00:17:25;;;;;;;48.83;20.33;;;;;;;6.94;100.00;99175.69;5084711;28;20339;-68
2022/03/16 00:19:51;;;;;;;57.95;21.58;;;;;;;7.03;100.00;99182.72;5078065;28;20025;-68
2022/03/16 00:22:16;;;;;;;43.92;18.25;;;;;;;7.06;100.00;99175.75;5064862;28;20028;-68
2022/03/16 00:24:42;;;;;;;54.90;20.23;;;;;;;7.06;100.00;99172.25;5064607;28;20091;-68
2022/03/16 00:27:07;;;;;;;45.47;18.40;;;;;;;6.99;100.00;99181.81;5075128;28;20028;-68
2022/03/16 00:29:33;;;;;;;44.28;17.25;;;;;;;7.01;100.00;99177.47;5084497;28;20021;-68
2022/03/16 00:31:59;;;;;;;53.63;19.33;;;;;;;7.01;100.00;99177.47;5084490;28;20035;-68
2022/03/16 00:34:24;;;;;;;52.30;18.15;;;;;;;6.98;100.00;99177.44;5084419;28;20024;-68
2022/03/16 00:36:50;;;;;;;46.90;17.70;;;;;;;7.04;100.00;99176.59;5084415;28;20236;-68
2022/03/16 00:39:15;;;;;;;50.50;19.25;;;;;;;7.03;100.00;99183.59;5084377;28;20219;-68
2022/03/16 00:41:41;;;;;;;45.92;19.35;;;;;;;6.93;100.00;99173.94;5084344;28;20024;-68
2022/03/16 00:44:07;;;;;;;47.05;17.67;;;;;;;6.97;100.00;99180.94;5083821;28;20025;-68
2022/03/16 00:46:33;;;;;;;47.28;18.60;;;;;;;7.04;100.00;99182.72;5084272;28;20320;-68
2022/03/16 00:48:58;;;;;;;48.80;18.55;;;;;;;7.03;100.00;99175.75;5084367;28;20048;-68
2022/03/16 00:51:24;;;;;;;46.28;18.50;;;;;;;7.02;100.00;99181.81;5084198;28;20303;-68
2022/03/16 00:53:49;;;;;;;49.97;18.85;;;;;;;7.02;100.00;99173.13;5084151;28;20083;-68
2022/03/16 00:56:15;;;;;;;45.67;19.02;;;;;;;7.03;100.00;99170.50;5084108;28;20028;-68
2022/03/16 00:58:40;;;;;;;49.85;19.73;;;;;;;7.02;100.00;99173.13;5084106;28;20032;-68
2022/03/16 01:01:06;;;;;;;48.97;20.30;;;;;;;7.02;100.00;99168.72;5084040;28;20342;-68
2022/03/16 01:03:33;;;;;;;49.03;19.08;;;;;;;7.09;100.00;99175.72;5084061;28;20075;-68
2022/03/16 01:05:58;;;;;;;54.25;19.80;;;;;;;7.05;100.00;99163.50;5079293;28;20328;-68
2022/03/16 01:08:24;;;;;;;47.88;19.40;;;;;;;7.08;100.00;99163.53;5063936;28;20036;-68
2022/03/16 01:10:50;;;;;;;49.33;17.30;;;;;;;7.12;100.00;99160.03;5063835;28;20264;-68
2022/03/16 01:13:16;;;;;;;51.28;19.05;;;;;;;7.16;100.00;99155.69;5063695;28;20088;-68
2022/03/16 01:15:41;;;;;;;44.70;17.40;;;;;;;7.11;100.00;99146.94;5065480;28;20379;-68
2022/03/16 01:18:07;;;;;;;46.67;19.85;;;;;;;7.09;100.00;99154.78;5083636;28;20024;-68
2022/03/16 01:20:32;;;;;;;51.55;18.45;;;;;;;7.14;100.00;99152.19;5083877;28;20033;-68
2022/03/16 01:22:58;;;;;;;47.92;19.30;;;;;;;7.13;100.00;99151.34;5084133;28;20024;-68
2022/03/16 01:25:23;;;;;;;46.88;18.20;;;;;;;7.17;100.00;99147.84;5083771;28;20024;-68
2022/03/16 01:27:49;;;;;;;46.67;19.65;;;;;;;7.18;100.00;99148.72;5064409;28;20032;-68
2022/03/16 01:30:14;;;;;;;48.38;19.42;;;;;;;7.25;100.00;99150.47;5063689;28;20059;-68
2022/03/16 01:32:41;;;;;;;47.58;16.70;;;;;;;7.21;100.00;99139.13;5063676;28;20250;-68
2022/03/16 01:35:08;;;;;;;48.47;18.02;;;;;;;7.19;100.00;99146.13;5063658;28;20025;-68
2022/03/16 01:37:33;;;;;;;49.38;19.00;;;;;;;7.21;100.00;99141.72;5080572;28;20316;-68
2022/03/16 01:39:59;;;;;;;56.20;20.08;;;;;;;7.17;100.00;99140.00;5083745;28;20055;-68
2022/03/16 01:42:25;;;;;;;48.25;18.65;;;;;;;7.27;100.00;99144.38;5083669;28;20357;-68
2022/03/16 01:44:52;;;;;;;54.67;19.35;;;;;;;7.33;100.00;99133.91;5083298;28;20197;-68
2022/03/16 01:47:20;;;;;;;52.83;21.33;;;;;;;7.21;100.00;99139.13;5068927;28;20031;-68
2022/03/16 01:49:46;;;;;;;42.65;17.52;;;;;;;7.23;100.00;99140.00;5063512;28;20100;-68
2022/03/16 01:52:15;;;;;;;50.22;17.95;;;;;;;7.28;100.00;99146.09;5063550;28;20029;-68
2022/03/16 01:54:41;;;;;;;48.90;18.50;;;;;;;7.37;100.00;99145.28;5063502;28;20024;-68
2022/03/16 01:57:11;;;;;;;61.05;20.92;;;;;;;7.29;100.00;99145.25;5077796;28;20035;-68
2022/03/16 01:59:38;;;;;;;47.67;16.52;;;;;;;7.34;100.00;99146.13;5087385;28;20029;-68
2022/03/16 02:02:05;;;;;;;54.60;20.05;;;;;;;7.29;100.00;99140.03;5087748;28;20039;-68
2022/03/16 02:04:30;;;;;;;54.92;21.00;;;;;;;7.24;100.00;99139.13;5087225;28;20035;-68
2022/03/16 02:06:57;;;;;;;56.15;21.40;;;;;;;7.32;100.00;99137.41;5076020;28;20080;-68
2022/03/16 02:09:23;;;;;;;54.97;19.52;;;;;;;7.38;100.00;99134.81;5067145;28;20033;-68
2022/03/16 02:11:48;;;;;;;49.33;18.85;;;;;;;7.38;100.00;99137.41;5067059;28;20059;-68
2022/03/16 02:14:14;;;;;;;54.72;20.52;;;;;;;7.39;100.00;99144.41;5066931;28;20237;-68
2022/03/16 02:16:39;;;;;;;49.78;19.13;;;;;;;7.42;100.00;99143.50;5075378;28;20069;-68
2022/03/16 02:19:05;;;;;;;44.00;17.70;;;;;;;7.43;100.00;99134.81;5087017;28;20028;-68
2022/03/16 02:21:35;;;;;;;44.08;16.85;;;;;;;7.42;100.00;99144.41;5086985;28;20030;-68
2022/03/16 02:24:01;;;;;;;45.45;17.77;;;;;;;7.39;100.00;99136.53;5086867;28;20020;-68
2022/03/16 02:26:27;;;;;;;46.45;18.23;;;;;;;7.44;100.00;99137.41;5080195;28;20352;-68
2022/03/16 02:28:53;;;;;;;43.80;19.20;;;;;;;7.50;100.00;99134.78;5066843;28;20021;-68
2022/03/16 02:31:19;;;;;;;44.30;19.35;;;;;;;7.37;100.00;99140.88;5066714;28;20048;-68
2022/03/16 02:33:45;;;;;;;47.38;17.52;;;;;;;7.57;100.00;99141.81;5066750;28;20069;-68
2022/03/16 02:36:10;;;;;;;44.65;18.15;;;;;;;7.58;100.00;99134.78;5070412;28;20048;-68
2022/03/16 02:38:36;;;;;;;39.75;17.17;;;;;;;7.54;100.00;99146.16;5086928;28;20070;-68
2022/03/16 02:41:02;;;;;;;43.15;17.02;;;;;;;7.38;100.00;99141.78;5086742;28;20212;-68
2022/03/16 02:43:27;;;;;;;43.20;17.35;;;;;;;7.39;100.00;99139.16;5086549;28;20032;-68
2022/03/16 02:45:54;;;;;;;39.13;17.05;;;;;;;7.44;100.00;99142.63;5085120;28;20377;-68
2022/03/16 02:48:20;;;;;;;40.20;16.40;;;;;;;7.47;100.00;99132.16;5066445;28;20100;-68
2022/03/16 02:50:45;;;;;;;39.42;16.77;;;;;;;7.46;100.00;99140.91;5066334;28;20025;-68
2022/03/16 02:53:11;;;;;;;39.83;16.55;;;;;;;7.41;99.63;99142.66;5066397;28;20055;-68
2022/03/16 02:55:36;;;;;;;39.40;16.90;;;;;;;7.44;100.00;99142.63;5066270;28;20031;-68
2022/03/16 02:58:02;;;;;;;35.97;16.08;;;;;;;7.35;100.00;99134.78;5084772;28;20031;-68
2022/03/16 03:00:28;;;;;;;34.90;15.23;;;;;;;7.37;99.79;99140.03;5086267;28;20024;-68
2022/03/16 03:02:54;;;;;;;37.88;16.05;;;;;;;7.34;100.00;99130.41;5084564;28;20012;-68
2022/03/16 03:05:20;;;;;;;38.22;16.85;;;;;;;7.26;100.00;99134.78;5086338;28;20044;-68
2022/03/16 03:07:46;;;;;;;39.05;16.15;;;;;;;7.28;100.00;99140.88;5069400;28;20025;-68
2022/03/16 03:10:11;;;;;;;34.58;16.67;;;;;;;7.25;100.00;99140.91;5065954;28;20089;-68
2022/03/16 03:12:37;;;;;;;44.28;18.15;;;;;;;7.26;100.00;99142.63;5066069;28;20423;-68
2022/03/16 03:15:10;;;;;;;37.92;16.88;;;;;;;7.28;100.00;99143.50;5065926;28;20056;-68
2022/03/16 03:17:36;;;;;;;39.22;15.88;;;;;;;7.30;100.00;99141.75;5066364;28;20013;-68
2022/03/16 03:20:01;;;;;;;45.05;17.85;;;;;;;7.31;100.00;99140.88;5065897;28;20083;-68
2022/03/16 03:22:27;;;;;;;43.90;18.08;;;;;;;7.29;100.00;99147.00;5065795;28;20347;-68
2022/03/16 03:24:54;;;;;;;34.83;15.98;;;;;;;7.23;100.00;99153.09;5065662;28;20317;-68
2022/03/16 03:27:20;;;;;;;37.75;14.88;;;;;;;7.26;100.00;99153.09;5078009;28;20350;-68
2022/03/16 03:29:46;;;;;;;35.92;15.80;;;;;;;7.30;100.00;99149.63;5085686;28;20057;-68
2022/03/16 03:32:11;;;;;;;40.38;16.75;;;;;;;7.25;100.00;99155.72;5085661;28;20048;-68
2022/03/16 03:34:37;;;;;;;41.30;17.02;;;;;;;7.22;100.00;99156.59;5085505;28;20013;-68
2022/03/16 03:37:02;;;;;;;40.05;17.63;;;;;;;7.22;100.00;99150.47;5076050;28;20021;-68
2022/03/16 03:39:28;;;;;;;40.00;16.60;;;;;;;7.21;100.00;99160.06;5065485;28;20020;-68
2022/03/16 03:41:53;;;;;;;32.97;15.20;;;;;;;7.26;100.00;99158.34;5065609;28;20244;-68
2022/03/16 03:44:19;;;;;;;35.67;15.15;;;;;;;7.26;100.00;99153.09;5065555;28;20089;-68
2022/03/16 03:46:44;;;;;;;34.50;15.52;;;;;;;7.25;100.00;99151.38;5075349;28;20043;-68
2022/03/16 03:49:10;;;;;;;34.42;15.55;;;;;;;7.27;100.00;99153.97;5085312;28;20016;-68
2022/03/16 03:51:35;;;;;;;36.83;15.30;;;;;;;7.24;100.00;99160.06;5085286;28;20083;-68
2022/03/16 03:54:01;;;;;;;39.60;16.08;;;;;;;7.27;100.00;99160.06;5085321;28;20375;-68
2022/03/16 03:56:26;;;;;;;34.03;14.68;;;;;;;7.31;100.00;99161.81;5083517;28;20020;-68
2022/03/16 03:58:52;;;;;;;32.00;13.85;;;;;;;7.26;100.00;99152.22;5085092;28;20246;-68
2022/03/16 04:01:17;;;;;;;26.98;12.68;;;;;;;7.28;100.00;99151.34;5085075;28;20028;-68
2022/03/16 04:03:43;;;;;;;30.15;13.23;;;;;;;7.31;99.91;99151.34;5084995;28;20212;-68
2022/03/16 04:06:10;;;;;;;28.70;12.48;;;;;;;7.39;99.26;99151.38;5080182;28;20023;-68
2022/03/16 04:08:35;;;;;;;29.40;12.55;;;;;;;7.35;99.56;99150.50;5064925;28;20123;-68
2022/03/16 04:11:01;;;;;;;33.17;12.43;;;;;;;7.40;99.19;99153.97;5064849;28;20028;-68
2022/03/16 04:13:27;;;;;;;31.23;14.60;;;;;;;7.36;99.14;99148.75;5064674;28;20044;-68
2022/03/16 04:15:52;;;;;;;32.60;13.38;;;;;;;7.36;99.21;99141.78;5066591;28;20024;-68
2022/03/16 04:18:18;;;;;;;24.00;11.95;;;;;;;7.35;98.74;99147.88;5084766;28;20024;-68
2022/03/16 04:20:43;;;;;;;28.13;12.77;;;;;;;7.21;99.67;99149.59;5084313;28;20032;-68
2022/03/16 04:23:08;;;;;;;30.15;13.00;;;;;;;7.13;99.59;99148.72;5084667;28;20047;-68
2022/03/16 04:25:34;;;;;;;32.90;13.63;;;;;;;7.14;100.00;99152.19;5084269;28;20031;-68
2022/03/16 04:27:59;;;;;;;30.90;13.77;;;;;;;7.12;99.81;99152.19;5065091;28;20028;-68
2022/03/16 04:30:25;;;;;;;27.90;13.13;;;;;;;7.06;100.00;99159.16;5064537;28;20029;-68
2022/03/16 04:32:52;;;;;;;35.83;14.80;;;;;;;7.06;100.00;99165.28;5064483;28;20386;-68
2022/03/16 04:35:19;;;;;;;42.05;15.48;;;;;;;7.01;100.00;99167.00;5074755;28;20020;-68
2022/03/16 04:37:44;;;;;;;27.77;12.40;;;;;;;7.04;100.00;99172.25;5067406;28;20025;-68
2022/03/16 04:40:10;;;;;;;31.15;12.38;;;;;;;7.06;100.00;99170.50;5064353;28;20378;-68
2022/03/16 04:42:36;;;;;;;28.33;12.52;;;;;;;6.98;100.00;99172.22;5064340;28;20380;-68
2022/03/16 04:45:02;;;;;;;31.65;12.10;;;;;;;6.92;100.00;99171.31;5064216;28;20024;-68
2022/03/16 04:47:27;;;;;;;28.80;13.73;;;;;;;6.87;100.00;99166.09;5078584;28;20016;-68
2022/03/16 04:49:53;;;;;;;32.42;13.48;;;;;;;6.89;100.00;99156.47;5084252;28;20096;-68
2022/03/16 04:52:18;;;;;;;32.92;13.88;;;;;;;6.84;100.00;99153.00;5084221;28;20091;-68
2022/03/16 04:54:43;;;;;;;27.83;13.27;;;;;;;6.84;100.00;99157.34;5083915;28;20243;-68
2022/03/16 04:57:09;;;;;;;26.27;12.50;;;;;;;6.87;100.00;99155.63;5072188;28;20017;-68
2022/03/16 04:59:34;;;;;;;31.35;12.60;;;;;;;6.97;100.00;99160.00;5064693;28;20028;-68
2022/03/16 05:02:00;;;;;;;32.67;12.30;;;;;;;6.85;99.44;99159.97;5064487;28;20017;-68
2022/03/16 05:04:26;;;;;;;29.55;12.43;;;;;;;6.75;99.88;99152.94;5064412;28;20190;-68
2022/03/16 05:06:51;;;;;;;31.10;13.35;;;;;;;6.73;100.00;99149.44;5076922;28;20014;-68
2022/03/16 05:09:16;;;;;;;30.60;13.45;;;;;;;6.72;100.00;99152.06;5065358;28;20059;-68
2022/03/16 05:11:42;;;;;;;28.45;12.43;;;;;;;6.63;100.00;99152.91;5074207;28;20096;-68
2022/03/16 05:14:09;;;;;;;30.23;13.77;;;;;;;6.57;100.00;99152.88;5069466;28;20044;-68
2022/03/16 05:16:35;;;;;;;33.10;14.90;;;;;;;6.52;100.00;99144.16;5079680;28;20073;-68
2022/03/16 05:19:01;;;;;;;32.30;13.65;;;;;;;6.54;100.00;99142.38;5062924;28;20051;-68
2022/03/16 05:21:26;;;;;;;31.33;14.02;;;;;;;6.49;100.00;99149.34;5064421;28;20060;-68
2022/03/16 05:23:52;;;;;;;37.78;14.68;;;;;;;6.47;100.00;99148.47;5063193;28;20025;-68
2022/03/16 05:26:17;;;;;;;34.55;14.15;;;;;;;6.49;100.00;99146.75;5069734;28;20051;-68
2022/03/16 05:28:43;;;;;;;31.13;14.55;;;;;;;6.42;100.00;99152.78;5077984;28;20016;-68
2022/03/16 05:31:08;;;;;;;33.25;13.75;;;;;;;6.37;100.00;99164.97;5065047;28;20235;-68
2022/03/16 05:33:33;;;;;;;36.22;13.48;;;;;;;6.32;100.00;99166.66;5070958;28;20095;-68
2022/03/16 05:35:59;;;;;;;33.53;14.02;;;;;;;6.29;100.00;99166.66;5078274;28;20319;-68
2022/03/16 05:38:24;;;;;;;33.25;14.50;;;;;;;6.24;100.00;99156.16;5086272;28;20021;-68
2022/03/16 05:40:50;;;;;;;33.75;14.13;;;;;;;6.27;100.00;99156.19;5087810;28;20252;-68
2022/03/16 05:43:15;;;;;;;36.58;14.30;;;;;;;6.26;100.00;99154.44;5086308;28;20220;-68
2022/03/16 05:45:41;;;;;;;33.85;14.23;;;;;;;6.22;100.00;99159.66;5087173;28;20028;-68
2022/03/16 05:48:07;;;;;;;34.75;15.38;;;;;;;6.22;100.00;99164.88;5087613;28;20020;-68
2022/03/16 05:50:32;;;;;;;35.15;15.70;;;;;;;6.20;100.00;99162.25;5087594;28;20316;-68
2022/03/16 05:52:59;;;;;;;34.58;15.27;;;;;;;6.21;100.00;99169.22;5087530;28;20027;-68
2022/03/16 05:55:25;;;;;;;33.83;14.48;;;;;;;6.27;100.00;99169.25;5087466;28;20024;-68
2022/03/16 05:57:51;;;;;;;32.13;15.75;;;;;;;6.30;100.00;99173.66;5087436;28;20020;-68
2022/03/16 06:00:18;;;;;;;39.90;16.42;;;;;;;6.29;100.00;99171.88;5087420;28;20020;-68
2022/03/16 06:02:44;;;;;;;43.40;16.92;;;;;;;6.29;100.00;99175.38;5087360;28;20040;-68
2022/03/16 06:05:10;;;;;;;37.92;15.20;;;;;;;6.30;100.00;99178.88;5087207;28;20087;-68
2022/03/16 06:07:37;;;;;;;34.30;15.65;;;;;;;6.33;100.00;99173.66;5087253;28;20024;-68
2022/03/16 06:10:06;;;;;;;40.20;15.75;;;;;;;6.41;100.00;99174.56;5087144;28;20050;-68
2022/03/16 06:12:32;;;;;;;40.22;15.57;;;;;;;6.50;100.00;99177.25;5087147;28;20031;-68
2022/03/16 06:14:57;;;;;;;40.33;17.52;;;;;;;6.51;100.00;99182.47;5086946;28;20093;-68
2022/03/16 06:17:23;;;;;;;45.88;17.77;;;;;;;6.56;100.00;99182.50;5087111;28;20020;-68
2022/03/16 06:19:48;;;;;;;36.15;16.25;;;;;;;6.57;100.00;99184.25;5087054;28;20251;-68
2022/03/16 06:22:14;;;;;;;41.08;17.40;;;;;;;6.60;100.00;99179.91;5086964;28;20020;-68
2022/03/16 06:24:39;;;;;;;41.28;17.08;;;;;;;6.66;100.00;99192.16;5086869;28;20036;-68
2022/03/16 06:27:05;;;;;;;39.67;16.88;;;;;;;6.72;100.00;99181.72;5086913;28;20343;-68
2022/03/16 06:29:30;;;;;;;47.97;19.17;;;;;;;6.71;100.00;99193.06;5086874;28;20065;-68
2022/03/16 06:31:55;;;;;;;46.75;21.05;;;;;;;6.76;100.00;99196.53;5086820;28;20017;-68
2022/03/16 06:34:21;;;;;;;43.47;19.13;;;;;;;6.82;100.00;99195.69;5086778;28;20027;-68
2022/03/16 06:36:46;;;;;;;44.38;17.17;;;;;;;6.93;100.00;99200.09;5086728;28;20029;-68
2022/03/16 06:39:12;;;;;;;51.22;20.15;;;;;;;6.88;100.00;99199.22;5086662;28;20028;-68
2022/03/16 06:41:37;;;;;;;43.10;18.08;;;;;;;6.97;100.00;99196.66;5086492;28;20020;-68
2022/03/16 06:44:03;;;;;;;47.42;20.63;;;;;;;6.98;100.00;99203.63;5086005;28;20020;-68
2022/03/16 06:46:28;;;;;;;41.58;19.20;;;;;;;7.17;100.00;99200.19;5086534;28;20024;-68
2022/03/16 06:48:54;;;;;;;54.17;20.58;;;;;;;7.26;100.00;99205.47;5086520;28;20028;-68
2022/03/16 06:51:19;;;;;;;51.88;20.40;;;;;;;7.16;100.00;99208.94;5086455;28;20078;-68
2022/03/16 06:53:45;;;;;;;47.40;18.92;;;;;;;7.30;100.00;99222.94;5086415;28;20315;-68
2022/03/16 06:56:10;;;;;;;47.85;21.85;;;;;;;7.24;100.00;99222.91;5086406;28;20047;-68
2022/03/16 06:58:35;;;;;;;48.30;21.55;;;;;;;7.28;100.00;99222.03;5086320;28;20066;-68
2022/03/16 07:01:02;;;;;;;57.63;22.23;;;;;;;7.14;100.00;99225.47;5086307;28;20024;-68
2022/03/16 07:03:27;;;;;;;48.10;20.67;;;;;;;7.28;100.00;99229.03;5086234;28;20327;-68
2022/03/16 07:05:53;;;;;;;51.45;20.05;;;;;;;7.37;99.66;99235.16;5086142;28;20044;-68
2022/03/16 07:08:18;;;;;;;53.35;22.30;;;;;;;7.28;99.78;99232.50;5086136;28;20076;-68
2022/03/16 07:10:44;;;;;;;49.22;21.42;;;;;;;7.21;100.00;99225.50;5086112;28;20027;-68
2022/03/16 07:13:13;;;;;;;56.75;20.95;;;;;;;7.41;99.95;99233.44;5086142;28;20039;-68
2022/03/16 07:15:43;;;;;;;53.60;20.13;;;;;;;7.46;99.82;99250.00;5086037;28;20025;-68
2022/03/16 07:18:09;;;;;;;47.17;21.00;;;;;;;7.46;99.59;99240.44;5085935;28;20024;-68
2022/03/16 07:20:35;;;;;;;52.55;21.35;;;;;;;7.50;99.11;99238.69;5085927;28;20323;-68
2022/03/16 07:23:05;;;;;;;61.72;21.92;;;;;;;7.59;98.64;99231.72;5085876;28;20030;-68
2022/03/16 07:25:31;;;;;;;55.97;22.55;;;;;;;7.50;99.16;99239.56;5086009;28;20254;-68
2022/03/16 07:27:56;;;;;;;57.22;23.45;;;;;;;7.48;99.40;99236.06;5085755;28;20035;-68
2022/03/16 07:30:22;;;;;;;46.60;20.05;;;;;;;7.51;99.43;99225.59;5085727;28;20024;-68
2022/03/16 07:32:47;;;;;;;52.20;21.83;;;;;;;7.63;99.02;99233.47;5085667;28;20215;-68
2022/03/16 07:35:13;;;;;;;46.50;20.60;;;;;;;7.68;99.17;99236.97;5085687;28;20329;-68
2022/03/16 07:37:39;;;;;;;49.38;20.80;;;;;;;7.68;98.92;99236.97;5085573;28;20024;-68
2022/03/16 07:40:06;;;;;;;52.45;22.42;;;;;;;7.72;99.39;99238.72;5085767;28;20308;-68
2022/03/16 07:42:31;;;;;;;47.08;20.42;;;;;;;7.81;98.76;99243.97;5085527;28;20052;-68
2022/03/16 07:44:57;;;;;;;53.55;20.92;;;;;;;7.96;98.08;99241.38;5085338;28;20020;-68
2022/03/16 07:47:25;;;;;;;50.60;19.33;;;;;;;8.03;97.99;99230.03;5085376;28;20048;-68
2022/03/16 07:49:50;;;;;;;54.25;21.98;;;;;;;8.02;98.00;99236.16;5085291;28;20024;-68
2022/03/16 07:52:16;;;;;;;50.40;20.52;;;;;;;8.21;97.01;99230.03;5085369;28;20028;-68
2022/03/16 07:54:42;;;;;;;50.58;21.15;;;;;;;8.00;97.55;99224.78;5084213;28;20024;-68
2022/03/16 07:57:08;;;;;;;51.05;20.27;;;;;;;8.32;97.42;99217.81;5085241;28;20032;-68
2022/03/16 07:59:34;;;;;;;54.17;22.65;;;;;;;8.31;96.72;99221.31;5085149;28;20103;-68
2022/03/16 08:01:59;;;;;;;46.13;20.17;;;;;;;8.37;96.54;99216.06;5085095;28;20311;-68
2022/03/16 08:04:24;;;;;;;47.85;19.92;;;;;;;8.49;96.42;99213.38;5084980;28;20224;-68
2022/03/16 08:06:50;;;;;;;53.10;21.95;;;;;;;8.41;96.21;99217.78;5084978;28;20029;-68
2022/03/16 08:09:16;;;;;;;53.25;20.73;;;;;;;8.43;96.52;99221.31;5084946;28;20343;-68
2022/03/16 08:11:41;;;;;;;46.95;20.95;;;;;;;8.46;96.36;99221.28;5084792;28;20083;-68
2022/03/16 08:14:06;;;;;;;46.10;20.02;;;;;;;8.48;96.11;99216.91;5084689;28;20043;-68
2022/03/16 08:16:32;;;;;;;44.65;18.73;;;;;;;8.56;96.09;99217.78;5085073;28;20025;-68
2022/03/16 08:18:57;;;;;;;50.95;21.40;;;;;;;8.61;95.55;99223.88;5084762;28;20024;-68
2022/03/16 08:21:23;;;;;;;52.58;21.30;;;;;;;8.79;94.53;99210.69;5084736;28;20362;-68
2022/03/16 08:23:49;;;;;;;43.30;18.63;;;;;;;9.06;94.09;99211.47;5084577;28;20056;-68
2022/03/16 08:26:16;;;;;;;49.50;19.67;;;;;;;9.24;92.96;99203.53;5084559;28;20035;-68
2022/03/16 08:28:42;;;;;;;47.70;19.02;;;;;;;9.52;91.82;99216.47;5084635;28;20039;-68
2022/03/16 08:31:08;;;;;;;52.97;21.65;;;;;;;9.25;91.50;99205.25;5084535;28;20070;-68
2022/03/16 08:33:33;;;;;;;43.47;19.38;;;;;;;9.13;92.75;99211.44;5084510;28;20106;-68
2022/03/16 08:36:01;;;;;;;41.63;18.27;;;;;;;9.61;91.64;99205.03;5084514;28;20020;-68
2022/03/16 08:38:30;;;;;;;39.47;18.42;;;;;;;9.44;90.70;99206.91;5084650;28;20264;-68
2022/03/16 08:40:55;;;;;;;45.45;19.52;;;;;;;9.55;91.41;99216.47;5084389;28;20351;-68
2022/03/16 08:43:21;;;;;;;41.90;18.15;;;;;;;9.87;89.96;99229.41;5084353;28;20054;-68
2022/03/16 08:45:47;;;;;;;36.97;16.77;;;;;;;10.08;89.30;99230.16;5084283;28;20274;-68
2022/03/16 08:48:14;;;;;;;43.67;18.67;;;;;;;10.02;88.53;99224.91;5084268;28;20059;-68
2022/03/16 08:50:40;;;;;;;43.15;19.33;;;;;;;9.61;89.96;99216.44;5084240;28;20381;-68
2022/03/16 08:53:05;;;;;;;44.47;19.05;;;;;;;9.50;91.04;99206.88;5084181;28;20020;-68
2022/03/16 08:55:31;;;;;;;40.30;17.17;;;;;;;9.77;90.58;99206.69;5084202;28;20067;-68
2022/03/16 08:57:57;;;;;;;46.00;20.10;;;;;;;9.59;90.99;99206.81;5084153;28;20032;-68
2022/03/16 09:00:23;;;;;;;44.45;17.85;;;;;;;9.64;91.32;99207.66;5084133;28;20043;-68
2022/03/16 09:02:48;;;;;;;47.08;19.83;;;;;;;9.78;89.94;99214.56;5084099;28;20024;-68
2022/03/16 09:05:15;;;;;;;47.42;17.70;;;;;;;10.00;89.34;99207.41;5083661;28;20080;-68
2022/03/16 09:07:41;;;;;;;43.97;18.85;;;;;;;9.76;89.86;99197.94;5084051;28;20020;-68
2022/03/16 09:10:08;;;;;;;41.47;18.00;;;;;;;9.86;90.38;99206.63;5083958;28;20039;-68
2022/03/16 09:12:34;;;;;;;40.33;16.70;;;;;;;10.00;89.61;99200.38;5084065;28;20320;-68
2022/03/16 09:14:59;;;;;;;40.55;16.30;;;;;;;10.13;89.02;99195.94;5083774;28;20036;-68
2022/03/16 09:17:28;;;;;;;44.10;19.60;;;;;;;9.95;89.19;99194.28;5083830;28;20048;-68
2022/03/16 09:19:53;;;;;;;43.10;17.67;;;;;;;10.07;88.72;99190.72;5083905;28;20031;-68
2022/03/16 09:22:20;;;;;;;46.90;18.30;;;;;;;9.90;89.94;99187.34;5083932;28;20032;-68
2022/03/16 09:24:48;;;;;;;34.40;16.23;;;;;;;10.31;88.80;99190.47;5083706;28;20025;-68
2022/03/16 09:27:16;;;;;;;38.95;16.45;;;;;;;10.48;87.75;99191.19;5083875;28;20370;-68
2022/03/16 09:29:43;;;;;;;45.35;17.75;;;;;;;10.40;87.68;99179.88;5084083;28;20042;-68
2022/03/16 09:32:09;;;;;;;38.40;17.40;;;;;;;10.73;87.02;99175.09;5084045;28;20020;-68
2022/03/16 09:34:36;;;;;;;36.75;15.15;;;;;;;10.81;86.31;99172.41;5083783;28;20244;-68
2022/03/16 09:37:01;;;;;;;49.40;17.92;;;;;;;10.68;87.80;99183.97;5083744;28;20028;-68
2022/03/16 09:39:27;;;;;;;40.08;17.35;;;;;;;10.71;87.63;99183.94;5083720;28;20029;-68
2022/03/16 09:41:54;;;;;;;46.75;18.27;;;;;;;11.14;86.25;99181.66;5083700;28;20030;-68
2022/03/16 09:44:20;;;;;;;44.45;17.85;;;;;;;11.09;85.12;99181.72;5083665;28;20031;-68
2022/03/16 09:46:50;;;;;;;46.40;19.00;;;;;;;10.91;86.47;99177.53;5083655;28;20029;-68
2022/03/16 09:49:15;;;;;;;36.60;16.30;;;;;;;10.73;87.42;99184.78;5083607;28;20027;-68
2022/03/16 09:51:41;;;;;;;39.15;16.70;;;;;;;10.75;86.77;99180.38;5083699;28;20024;-68
2022/03/16 09:54:07;;;;;;;37.85;16.83;;;;;;;10.74;87.63;99182.16;5083606;28;20035;-68
2022/03/16 09:56:33;;;;;;;37.00;16.30;;;;;;;10.87;87.11;99182.84;5083849;28;20020;-68
2022/03/16 09:58:59;;;;;;;42.42;16.48;;;;;;;11.24;87.06;99197.31;5083689;28;20336;-68
2022/03/16 10:01:24;;;;;;;38.90;17.48;;;;;;;10.98;87.62;99178.31;5083541;28;20087;-68
2022/03/16 10:03:50;;;;;;;39.17;16.55;;;;;;;10.63;88.14;99172.59;5083695;28;20021;-68
2022/03/16 10:06:17;;;;;;;39.78;18.23;;;;;;;11.09;87.45;99184.34;5083502;28;20029;-68
2022/03/16 10:13:13;;;;;;;39.42;18.58;;;;;;;11.33;86.19;99184.00;5083407;28;20033;-68
2022/03/16 10:14:15;;;;;;;41.67;17.00;;;;;;;11.43;86.11;99184.75;5083288;28;20247;-68
2022/03/16 10:19:48;;;;;;;35.90;17.30;;;;;;;11.44;85.64;99187.38;5087085;28;20058;-68
2022/03/16 10:22:23;;;;;;;44.47;17.05;;;;;;;11.83;84.38;99186.81;5086982;28;20030;-68
2022/03/16 10:24:48;;;;;;;45.08;17.00;;;;;;;11.82;83.72;99174.53;5087164;28;20315;-68
2022/03/16 10:27:17;;;;;;;33.33;15.38;;;;;;;11.89;83.63;99173.53;5086943;28;20091;-68
2022/03/16 10:29:43;;;;;;;37.33;16.55;;;;;;;11.76;84.21;99174.63;5086893;28;20031;-68
2022/03/16 10:32:08;;;;;;;44.53;17.67;;;;;;;11.74;84.46;99160.59;5086850;28;20111;-68
2022/03/16 10:34:33;;;;;;;40.05;17.50;;;;;;;11.84;83.81;99167.47;5086796;28;20040;-68
2022/03/16 10:37:01;;;;;;;36.75;16.42;;;;;;;11.76;84.14;99177.25;5087027;28;20312;-68
2022/03/16 10:39:38;;;;;;;34.55;15.98;;;;;;;11.72;84.62;99172.94;5086703;28;20016;-68
2022/03/16 10:47:59;;;;;;;41.15;16.85;;;;;;;11.69;84.66;99161.56;5086712;28;20023;-68
2022/03/16 10:50:25;;;;;;;41.60;17.83;;;;;;;11.88;84.93;99157.72;5086527;28;20219;-68
2022/03/16 10:52:52;;;;;;;37.35;16.23;;;;;;;11.77;84.65;99144.72;5086490;28;20043;-68
2022/03/16 10:55:22;;;;;;;37.00;16.65;;;;;;;11.96;83.69;99156.69;5086433;28;20020;-68
2022/03/16 10:57:51;;;;;;;42.85;18.13;;;;;;;11.86;84.56;99144.56;5086391;28;20419;-68
2022/03/16 11:00:17;;;;;;;34.97;16.15;;;;;;;11.75;85.27;99141.25;5086576;28;20020;-68
2022/03/16 11:02:45;;;;;;;35.97;16.92;;;;;;;11.97;84.64;99147.03;5086258;28;20338;-68
2022/03/16 11:05:10;;;;;;;34.38;16.17;;;;;;;11.96;84.94;99151.44;5086169;28;20044;-68
2022/03/16 11:07:36;;;;;;;40.85;18.20;;;;;;;11.51;85.88;99157.41;5086451;28;20016;-68
2022/03/16 11:10:04;;;;;;;35.47;16.05;;;;;;;11.64;86.12;99161.63;5086096;28;20021;-68
2022/03/16 11:15:14;;;;;;;35.67;16.67;;;;;;;11.34;86.85;99156.78;5085972;28;20047;-68
2022/03/16 11:17:40;;;;;;;33.60;15.80;;;;;;;11.44;87.74;99166.28;5086005;28;20024;-68
2022/03/16 11:20:08;;;;;;;37.78;15.98;;;;;;;11.72;86.92;99157.13;5086148;28;20028;-68
2022/03/16 11:24:15;;;;;;;37.95;16.73;;;;;;;11.80;86.26;99159.63;5085983;28;20035;-68
2022/03/16 11:25:43;;;;;;;35.35;16.45;;;;;;;11.76;85.46;99164.06;5085750;28;20098;-68
2022/03/16 11:28:14;;;;;;;39.72;16.80;;;;;;;11.89;85.02;99149.78;5085687;28;20027;-68